Acoperit cu ploaie ușoară
Acoperit cu ploaie ușoară
Cer acoperit
Cer acoperit
Cer acoperit
Cer acoperit
Cer acoperit
(°C)
(°C)
-6°
-4°
-4°
-4°
-5°
-5°
-7°
ENE
NE
NE
NE
NNE
NNE
NNE
(km/h)
20-25
14-30
15-34
17-38
19-40
23-40
30-48
(mm)
1
1
0
0
0
0
0
(%)
40
28
7
18
9
8
9

Elevația soarelui

/ -31°
sun-icon
UV 1
07:29
17:29
Primul pătrar (165°)
15:56
07:15

METAR pentru Otopeni (LROP)

Ora Condiții Temperatură/
Punctul de rouă
Vânt Vizibilitate Vremea Nori Presiune Schimbă Brut
MVFR 1°C / 0°C 60º 11kt 6000m Light Snow 1.00mm precipitation Vertical Visibility of 0ft.
Overcast 4000ft
1014 No Significant change LROP 041800Z 06011KT 6000 -SN FEW008 OVC040 01/00 Q1014 NOSIG
IFR 0°C / 0°C 60º 12kt 3000m Light Snow Mist 1.00mm precipitation Vertical Visibility of 0ft.
Overcast 3300ft
1014 No Significant change LROP 041730Z 06012KT 3000 -SN BR BKN008 OVC033 00/00 Q1014 NOSIG
IFR 0°C / 0°C 70º 8kt 3000m Light Snow Mist 1.00mm precipitation Vertical Visibility of 0ft.
Overcast 1000ft
1014 No Significant change LROP 041700Z 07008KT 3000 -SN BR BKN008 OVC010 00/00 Q1014 NOSIG
IFR 0°C / 0°C 80º 7kt 2300m Light Snow Mist 1.00mm precipitation Vertical Visibility of 0ft.
Overcast 700ft
1013 Becoming: Visibility 3000. Broken Clouds 1000ft. Overcast 1500ft. LROP 041630Z 08007KT 2300 -SN BR BKN005 OVC007 00/00 Q1013 RESN BECMG 3000 BKN010 OVC015
IFR 0°C / 0°C 80º 5kt 1800m Snow Mist 3.00mm precipitation Vertical Visibility of 0ft.
Overcast 700ft
1013 Becoming: Visibility 3000. Light Snow . Mist . LROP 041600Z 08005KT 1800 SN BR BKN005 OVC007 00/00 Q1013 BECMG 3000 -SN BR
IFR 0°C / 0°C 60º 8kt 2000m Snow Mist 3.00mm precipitation Vertical Visibility of 0ft.
Broken Clouds 1200ft
Overcast 2000ft
1012 Temporary: Visibility 1500. Snow . Mist . LROP 041530Z 06008KT 2000 SN BR FEW008 BKN012 OVC020 00/M00 Q1012 TEMPO 1500 SN BR
IFR 0°C / 0°C 60º 9kt 2500m Snow Mist 3.00mm precipitation Vertical Visibility of 0ft.
Scattered Clouds 2000ft
Overcast 3000ft
1012 Temporary: Visibility 1500. Snow . Mist . LROP 041500Z 06009KT 2500 SN BR FEW014 SCT020 OVC030 00/M00 Q1012 TEMPO 1500 SN BR
MVFR 1°C / 0°C 60º 8kt 7000m Light Snow 1.00mm precipitation Vertical Visibility of 0ft.
Overcast 4000ft
1012 No Significant change LROP 041430Z 06008KT 7000 -SN SCT028 OVC040 01/M00 Q1012 NOSIG
VFR 2°C / 0°C 80º 9kt >10km - Few Clouds 4400ft 1011 No Significant change LROP 041400Z 08009KT 9999 FEW044 02/M00 Q1011 NOSIG
VFR 2°C / -1°C 80º 10kt >10km - Clouds and Visibility OK 1011 No Significant change LROP 041330Z 08010KT CAVOK 02/M01 Q1011 NOSIG
VFR 3°C / 0°C 70º 8kt >10km - Clouds and Visibility OK 1010 No Significant change LROP 041300Z 07008KT CAVOK 03/M00 Q1010 NOSIG
VFR 4°C / -1°C 50º 6kt >10km - Clouds and Visibility OK 1010 No Significant change LROP 041230Z 05006KT CAVOK 04/M01 Q1010 NOSIG
VFR 4°C / -2°C 360º variable 330º to 050º 4kt >10km - Clouds and Visibility OK 1009 No Significant change LROP 041200Z 36004KT 330V050 CAVOK 04/M02 Q1009 NOSIG
VFR 4°C / -1°C 310º variable 270º to 010º 4kt >10km - Clouds and Visibility OK 1009 No Significant change LROP 041130Z 31004KT 270V010 CAVOK 04/M01 Q1009 NOSIG
VFR 3°C / -1°C 270º 5kt >10km - Clouds and Visibility OK 1009 No Significant change LROP 041100Z 27005KT CAVOK 03/M01 Q1009 NOSIG
VFR 3°C / -1°C 320º variable 240º to 020º 3kt >10km - Clouds and Visibility OK 1009 No Significant change LROP 041030Z 32003KT 240V020 CAVOK 03/M01 Q1009 NOSIG
VFR 3°C / -1°C 310º variable 280º to 010º 4kt >10km - Clouds and Visibility OK 1009 No Significant change LROP 041000Z 31004KT 280V010 CAVOK 03/M01 Q1009 NOSIG
VFR 3°C / -1°C 290º 7kt >10km - Clouds and Visibility OK 1009 No Significant change LROP 040930Z 29007KT CAVOK 03/M01 Q1009 NOSIG
VFR 2°C / -1°C 300º 6kt >10km - Clouds and Visibility OK 1009 No Significant change LROP 040900Z 30006KT CAVOK 02/M01 Q1009 NOSIG
VFR 2°C / 0°C 300º variable 270º to 330º 5kt >10km - Clouds and Visibility OK 1009 No Significant change LROP 040830Z 30005KT 270V330 CAVOK 02/00 Q1009 NOSIG
VFR 2°C / 1°C 290º 4kt 9000m - Clear 1009 No Significant change LROP 040800Z 29004KT 9000 NSC 02/01 Q1009 NOSIG
VFR 1°C / 1°C 310º 4kt 9000m - Clear 1009 No Significant change LROP 040730Z 31004KT 9000 NSC 01/01 Q1009 NOSIG
LIFR 1°C / 1°C 320º variable 300º to 360º 3kt 9000m - Broken Clouds 300ft
Overcast 4900ft
1009 No Significant change LROP 040700Z 32003KT 300V360 9000 BKN003 OVC049 01/01 Q1009 NOSIG
LIFR 1°C / 1°C 310º 3kt 8000m - Overcast 200ft 1009 No Significant change LROP 040630Z 31003KT 8000 OVC002 01/01 Q1009 NOSIG

MVFR

1°C / 0°C

[Mai mult]
Vânt 60º 11kt
Vizibilitate 6000m
Vremea Light Snow 1.00mm precipitation
Nori Vertical Visibility of 0ft.
Overcast 4000ft
Presiune 1014
Schimbă No Significant change
Brut LROP 041800Z 06011KT 6000 -SN FEW008 OVC040 01/00 Q1014 NOSIG

IFR

0°C / 0°C

[Mai mult]
Vânt 60º 12kt
Vizibilitate 3000m
Vremea Light Snow Mist 1.00mm precipitation
Nori Vertical Visibility of 0ft.
Overcast 3300ft
Presiune 1014
Schimbă No Significant change
Brut LROP 041730Z 06012KT 3000 -SN BR BKN008 OVC033 00/00 Q1014 NOSIG

IFR

0°C / 0°C

[Mai mult]
Vânt 70º 8kt
Vizibilitate 3000m
Vremea Light Snow Mist 1.00mm precipitation
Nori Vertical Visibility of 0ft.
Overcast 1000ft
Presiune 1014
Schimbă No Significant change
Brut LROP 041700Z 07008KT 3000 -SN BR BKN008 OVC010 00/00 Q1014 NOSIG

IFR

0°C / 0°C

[Mai mult]
Vânt 80º 7kt
Vizibilitate 2300m
Vremea Light Snow Mist 1.00mm precipitation
Nori Vertical Visibility of 0ft.
Overcast 700ft
Presiune 1013
Schimbă Becoming: Visibility 3000. Broken Clouds 1000ft. Overcast 1500ft.
Brut LROP 041630Z 08007KT 2300 -SN BR BKN005 OVC007 00/00 Q1013 RESN BECMG 3000 BKN010 OVC015

IFR

0°C / 0°C

[Mai mult]
Vânt 80º 5kt
Vizibilitate 1800m
Vremea Snow Mist 3.00mm precipitation
Nori Vertical Visibility of 0ft.
Overcast 700ft
Presiune 1013
Schimbă Becoming: Visibility 3000. Light Snow . Mist .
Brut LROP 041600Z 08005KT 1800 SN BR BKN005 OVC007 00/00 Q1013 BECMG 3000 -SN BR

IFR

0°C / 0°C

[Mai mult]
Vânt 60º 8kt
Vizibilitate 2000m
Vremea Snow Mist 3.00mm precipitation
Nori Vertical Visibility of 0ft.
Broken Clouds 1200ft
Overcast 2000ft
Presiune 1012
Schimbă Temporary: Visibility 1500. Snow . Mist .
Brut LROP 041530Z 06008KT 2000 SN BR FEW008 BKN012 OVC020 00/M00 Q1012 TEMPO 1500 SN BR

IFR

0°C / 0°C

[Mai mult]
Vânt 60º 9kt
Vizibilitate 2500m
Vremea Snow Mist 3.00mm precipitation
Nori Vertical Visibility of 0ft.
Scattered Clouds 2000ft
Overcast 3000ft
Presiune 1012
Schimbă Temporary: Visibility 1500. Snow . Mist .
Brut LROP 041500Z 06009KT 2500 SN BR FEW014 SCT020 OVC030 00/M00 Q1012 TEMPO 1500 SN BR

MVFR

1°C / 0°C

[Mai mult]
Vânt 60º 8kt
Vizibilitate 7000m
Vremea Light Snow 1.00mm precipitation
Nori Vertical Visibility of 0ft.
Overcast 4000ft
Presiune 1012
Schimbă No Significant change
Brut LROP 041430Z 06008KT 7000 -SN SCT028 OVC040 01/M00 Q1012 NOSIG

VFR

2°C / 0°C

[Mai mult]
Vânt 80º 9kt
Vizibilitate >10km
Vremea -
Nori Few Clouds 4400ft
Presiune 1011
Schimbă No Significant change
Brut LROP 041400Z 08009KT 9999 FEW044 02/M00 Q1011 NOSIG

VFR

2°C / -1°C

[Mai mult]
Vânt 80º 10kt
Vizibilitate >10km
Vremea -
Nori Clouds and Visibility OK
Presiune 1011
Schimbă No Significant change
Brut LROP 041330Z 08010KT CAVOK 02/M01 Q1011 NOSIG

VFR

3°C / 0°C

[Mai mult]
Vânt 70º 8kt
Vizibilitate >10km
Vremea -
Nori Clouds and Visibility OK
Presiune 1010
Schimbă No Significant change
Brut LROP 041300Z 07008KT CAVOK 03/M00 Q1010 NOSIG

VFR

4°C / -1°C

[Mai mult]
Vânt 50º 6kt
Vizibilitate >10km
Vremea -
Nori Clouds and Visibility OK
Presiune 1010
Schimbă No Significant change
Brut LROP 041230Z 05006KT CAVOK 04/M01 Q1010 NOSIG

VFR

4°C / -2°C

[Mai mult]
Vânt 360º variable 330º to 050º 4kt
Vizibilitate >10km
Vremea -
Nori Clouds and Visibility OK
Presiune 1009
Schimbă No Significant change
Brut LROP 041200Z 36004KT 330V050 CAVOK 04/M02 Q1009 NOSIG

VFR

4°C / -1°C

[Mai mult]
Vânt 310º variable 270º to 010º 4kt
Vizibilitate >10km
Vremea -
Nori Clouds and Visibility OK
Presiune 1009
Schimbă No Significant change
Brut LROP 041130Z 31004KT 270V010 CAVOK 04/M01 Q1009 NOSIG

VFR

3°C / -1°C

[Mai mult]
Vânt 270º 5kt
Vizibilitate >10km
Vremea -
Nori Clouds and Visibility OK
Presiune 1009
Schimbă No Significant change
Brut LROP 041100Z 27005KT CAVOK 03/M01 Q1009 NOSIG

VFR

3°C / -1°C

[Mai mult]
Vânt 320º variable 240º to 020º 3kt
Vizibilitate >10km
Vremea -
Nori Clouds and Visibility OK
Presiune 1009
Schimbă No Significant change
Brut LROP 041030Z 32003KT 240V020 CAVOK 03/M01 Q1009 NOSIG

VFR

3°C / -1°C

[Mai mult]
Vânt 310º variable 280º to 010º 4kt
Vizibilitate >10km
Vremea -
Nori Clouds and Visibility OK
Presiune 1009
Schimbă No Significant change
Brut LROP 041000Z 31004KT 280V010 CAVOK 03/M01 Q1009 NOSIG

VFR

3°C / -1°C

[Mai mult]
Vânt 290º 7kt
Vizibilitate >10km
Vremea -
Nori Clouds and Visibility OK
Presiune 1009
Schimbă No Significant change
Brut LROP 040930Z 29007KT CAVOK 03/M01 Q1009 NOSIG

VFR

2°C / -1°C

[Mai mult]
Vânt 300º 6kt
Vizibilitate >10km
Vremea -
Nori Clouds and Visibility OK
Presiune 1009
Schimbă No Significant change
Brut LROP 040900Z 30006KT CAVOK 02/M01 Q1009 NOSIG

VFR

2°C / 0°C

[Mai mult]
Vânt 300º variable 270º to 330º 5kt
Vizibilitate >10km
Vremea -
Nori Clouds and Visibility OK
Presiune 1009
Schimbă No Significant change
Brut LROP 040830Z 30005KT 270V330 CAVOK 02/00 Q1009 NOSIG

VFR

2°C / 1°C

[Mai mult]
Vânt 290º 4kt
Vizibilitate 9000m
Vremea -
Nori Clear
Presiune 1009
Schimbă No Significant change
Brut LROP 040800Z 29004KT 9000 NSC 02/01 Q1009 NOSIG

VFR

1°C / 1°C

[Mai mult]
Vânt 310º 4kt
Vizibilitate 9000m
Vremea -
Nori Clear
Presiune 1009
Schimbă No Significant change
Brut LROP 040730Z 31004KT 9000 NSC 01/01 Q1009 NOSIG

LIFR

1°C / 1°C

[Mai mult]
Vânt 320º variable 300º to 360º 3kt
Vizibilitate 9000m
Vremea -
Nori Broken Clouds 300ft
Overcast 4900ft
Presiune 1009
Schimbă No Significant change
Brut LROP 040700Z 32003KT 300V360 9000 BKN003 OVC049 01/01 Q1009 NOSIG

LIFR

1°C / 1°C

[Mai mult]
Vânt 310º 3kt
Vizibilitate 8000m
Vremea -
Nori Overcast 200ft
Presiune 1009
Schimbă No Significant change
Brut LROP 040630Z 31003KT 8000 OVC002 01/01 Q1009 NOSIG

TAF pentru Otopeni (LROP)

From till


From till Wind 60º 10kt. Visibility 3000m. Light Snow Mist . Broken Clouds 1000ft. Overcast 1500ft.
Becoming from till Wind 60º 16kt. Visibility 10km or more. Broken Clouds 4000ft.
With 30% probability, Temporarly from till Wind 50º 16kt. Gust 26kt.
Becoming from till Wind 70º 6kt. Visibility 10km or more. Broken Clouds 4000ft.

Brut: TAF LROP 041700Z 0418/0518 06010KT 3000 -SN BR BKN010 OVC015 BECMG 0418/0420 06016KT 9999 NSW BKN040 PROB30 TEMPO 0421/0501 05016G26KT BECMG 0504/0506 07006KT

Radar și nowcast de precipitații pentru Otopeni

Burniță
Ușoară
Moderat
Greu
Foarte greu
Grindină

Markerul de locație este plasat în Otopeni. Această animaţie arată radarul de precipitaţii pentru 1 ora anterioară. Ploaia sau ninsoarea slabă ar putea fi invizibilă pentru radar. Intensitatea precipitațiilor este codificată prin culori, de la albastru deschis la portocaliu.
Copyright 2023 Meteo Romania / meteoblue.

Imagini satelitare și ploaie pentru Otopeni, România

Markerul cu locaţia este poziţionat pe Otopeni. [Mai mult]

Imaginea satelitară în timp real combină lumina vizibilă din timpul zilei cu radiația cu infraroșu din timpul nopții. Pe timp de noapte, imaginea nu este întunecată, deoarece radiația cu infraroșu poate detecta diferențele de temperatură. Din păcate, norii joși și ceața sunt greu de recunoscut față de temperatura de la sol, din această cauză putând fi invizibili pe timp de noapte. Imaginile satelitare Meteosat pentru Europa sunt actualizate în timp real din 5 în 5 minute. Imaginile GOES-16/GOES-17 (America de Nord și de Sud) și Himawari (Asia) sunt actualizate din 10 în 10 minute.

Precipitațiile sunt estimate pe baza radarelor și a sateliților. Estimările de precipitații de la sateliți sunt mai puțin precise pe timp de noapte decât pe timp de zi. Crucile portocalii marchează locurile unde fulger a fost detectat (over Europa).

Toate drepturile rezervate 2023 EUMETSAT / meteoblue. Datele despre fulgere furnizate de către nowcast.

Mergi sus